createdAt,value
2022-11-26T00:00:25.838Z,12.30
2022-11-26T00:02:30.860Z,16.65
2022-11-26T00:04:33.571Z,15.70
2022-11-26T00:06:39.531Z,15.60
2022-11-26T00:08:41.608Z,16.60
2022-11-26T00:10:44.294Z,19.58
2022-11-26T00:12:46.831Z,16.90
2022-11-26T00:14:49.158Z,14.90
2022-11-26T00:16:51.274Z,17.00
2022-11-26T00:18:53.331Z,18.45
2022-11-26T00:20:59.838Z,15.38
2022-11-26T00:23:04.472Z,16.45
2022-11-26T00:25:13.090Z,19.67
2022-11-26T00:27:15.100Z,13.25
2022-11-26T00:29:17.234Z,18.83
2022-11-26T00:31:20.339Z,17.33
2022-11-26T00:33:23.326Z,13.85
2022-11-26T00:35:25.891Z,16.33
2022-11-26T00:37:34.166Z,14.88
2022-11-26T00:39:37.036Z,15.48
2022-11-26T00:41:39.440Z,15.82
2022-11-26T00:47:47.382Z,15.60
2022-11-26T00:49:49.403Z,15.07
2022-11-26T00:51:51.515Z,15.02
2022-11-26T00:53:55.692Z,15.20
2022-11-26T00:55:57.954Z,18.38
2022-11-26T01:00:02.295Z,17.23
2022-11-26T01:04:06.578Z,15.27
2022-11-26T01:08:35.909Z,15.77
2022-11-26T01:10:37.936Z,16.40
2022-11-26T01:12:40.191Z,16.35
2022-11-26T01:14:42.480Z,20.27
2022-11-26T01:16:46.580Z,17.55
2022-11-26T01:18:50.536Z,19.40
2022-11-26T01:20:52.652Z,23.52
2022-11-26T01:22:57.011Z,18.15
2022-11-26T01:24:58.981Z,15.75
2022-11-26T01:27:01.043Z,14.10
2022-11-26T01:29:03.232Z,14.05
2022-11-26T01:33:07.837Z,14.63
2022-11-26T01:35:10.610Z,12.52
2022-11-26T01:37:14.346Z,15.07
2022-11-26T01:39:18.944Z,14.35
2022-11-26T01:41:35.079Z,17.63
2022-11-26T01:43:43.282Z,12.65
2022-11-26T01:45:45.917Z,18.58
2022-11-26T01:47:49.803Z,13.23
2022-11-26T01:50:32.025Z,12.32
2022-11-26T01:52:34.192Z,12.52
2022-11-26T01:54:40.505Z,12.88
2022-11-26T01:56:52.596Z,13.43
2022-11-26T01:59:19.023Z,11.45
2022-11-26T02:01:23.813Z,14.05
2022-11-26T02:03:28.271Z,11.18
2022-11-26T02:05:33.570Z,13.98
2022-11-26T02:07:36.773Z,12.93
2022-11-26T02:09:39.438Z,12.40
2022-11-26T02:11:41.705Z,11.85
2022-11-26T02:16:18.247Z,12.68
2022-11-26T02:18:22.292Z,15.55
2022-11-26T02:20:46.483Z,11.00
2022-11-26T02:22:57.521Z,11.50
2022-11-26T02:25:38.617Z,11.32
2022-11-26T02:27:52.994Z,13.43
2022-11-26T02:30:10.671Z,11.60
2022-11-26T02:32:20.887Z,12.82
2022-11-26T02:34:41.825Z,12.57
2022-11-26T02:36:59.153Z,11.30
2022-11-26T02:39:13.083Z,11.88
2022-11-26T02:41:15.096Z,14.82
2022-11-26T02:43:17.609Z,12.25
2022-11-26T02:45:31.058Z,12.43
2022-11-26T02:47:34.955Z,12.63
2022-11-26T02:49:39.418Z,10.63
2022-11-26T02:51:42.876Z,12.95
2022-11-26T02:53:49.056Z,12.18
2022-11-26T02:56:01.063Z,13.52
2022-11-26T02:58:04.287Z,10.82
2022-11-26T03:00:07.123Z,11.40
2022-11-26T03:02:19.839Z,8.57
2022-11-26T03:06:35.003Z,14.00
2022-11-26T03:08:37.902Z,11.32
2022-11-26T03:10:39.929Z,11.55
2022-11-26T03:12:41.979Z,10.48
2022-11-26T03:16:46.229Z,8.90
2022-11-26T03:18:48.366Z,14.05
2022-11-26T03:20:52.502Z,14.02
2022-11-26T03:22:54.787Z,12.45
2022-11-26T03:24:56.773Z,10.38
2022-11-26T03:26:59.438Z,10.57
2022-11-26T03:29:01.418Z,10.15
2022-11-26T03:31:03.540Z,10.73
2022-11-26T03:33:05.698Z,13.45
2022-11-26T03:35:08.305Z,11.20
2022-11-26T03:37:10.559Z,11.90
2022-11-26T03:39:13.300Z,9.00
2022-11-26T03:41:15.322Z,17.13
2022-11-26T03:43:17.385Z,9.68
2022-11-26T03:45:19.568Z,12.93
2022-11-26T03:47:21.671Z,11.02
2022-11-26T03:49:23.946Z,17.50
2022-11-26T03:51:26.105Z,9.82
2022-11-26T03:55:29.978Z,13.20
2022-11-26T03:57:32.037Z,10.57
2022-11-26T03:59:34.136Z,13.23
2022-11-26T04:01:36.431Z,12.45
2022-11-26T04:03:39.196Z,10.18
2022-11-26T04:05:41.460Z,11.10
2022-11-26T04:07:43.724Z,12.90
2022-11-26T04:09:45.974Z,10.77
2022-11-26T04:11:48.133Z,13.35
2022-11-26T04:13:50.163Z,12.90
2022-11-26T04:15:52.530Z,11.23
2022-11-26T04:17:54.638Z,8.45
2022-11-26T04:19:56.637Z,15.65
2022-11-26T04:21:58.766Z,7.50
2022-11-26T04:24:00.815Z,11.20
2022-11-26T04:26:03.077Z,7.75
2022-11-26T04:28:05.350Z,11.20
2022-11-26T04:32:10.047Z,8.00
2022-11-26T04:34:12.133Z,8.55
2022-11-26T04:36:14.124Z,8.60
2022-11-26T04:38:16.193Z,7.50
2022-11-26T04:40:18.300Z,9.35
2022-11-26T04:42:20.502Z,9.15
2022-11-26T04:44:22.526Z,7.85
2022-11-26T04:46:24.666Z,8.55
2022-11-26T04:48:26.768Z,7.28
2022-11-26T04:50:28.862Z,8.43
2022-11-26T04:52:30.925Z,8.63
2022-11-26T04:54:32.991Z,9.80
2022-11-26T04:56:34.956Z,9.90
2022-11-26T04:58:37.117Z,10.75
2022-11-26T05:00:40.201Z,9.88
2022-11-26T05:02:42.377Z,10.70
2022-11-26T05:04:44.669Z,13.57
2022-11-26T05:06:47.028Z,12.13
2022-11-26T05:10:58.499Z,9.50
2022-11-26T05:13:01.242Z,12.18
2022-11-26T05:15:04.705Z,15.32
2022-11-26T05:17:06.902Z,9.95
2022-11-26T05:19:08.926Z,10.63
2022-11-26T05:21:11.040Z,9.95
2022-11-26T05:23:13.769Z,11.43
2022-11-26T05:25:15.952Z,10.38
2022-11-26T05:27:18.129Z,8.90
2022-11-26T05:29:20.135Z,10.30
2022-11-26T05:31:23.449Z,7.50
2022-11-26T05:33:26.096Z,9.40
2022-11-26T05:35:28.195Z,11.30
2022-11-26T05:37:30.572Z,9.30
2022-11-26T05:39:32.769Z,10.05
2022-11-26T05:41:35.011Z,15.27
2022-11-26T05:45:39.449Z,12.20
2022-11-26T05:47:41.641Z,13.75
2022-11-26T05:49:44.167Z,10.77
2022-11-26T05:51:46.200Z,12.57
2022-11-26T05:53:48.369Z,13.43
2022-11-26T05:55:50.409Z,13.85
2022-11-26T05:57:53.161Z,13.27
2022-11-26T05:59:55.233Z,15.35
2022-11-26T06:01:57.830Z,18.75
2022-11-26T06:03:59.915Z,16.13
2022-11-26T06:06:02.619Z,20.13
2022-11-26T06:08:04.912Z,16.33
2022-11-26T06:10:08.346Z,16.77
2022-11-26T06:12:10.412Z,15.45
2022-11-26T06:14:12.506Z,15.57
2022-11-26T06:16:14.656Z,15.48
2022-11-26T06:18:17.479Z,17.98
2022-11-26T06:20:19.641Z,14.55
2022-11-26T06:22:21.761Z,9.63
2022-11-26T06:24:24.267Z,11.70
2022-11-26T06:26:26.315Z,12.25
2022-11-26T06:28:28.355Z,12.23
2022-11-26T06:30:30.541Z,11.10
2022-11-26T06:32:33.269Z,14.32
2022-11-26T06:34:35.381Z,9.10
2022-11-26T06:36:37.780Z,8.80
2022-11-26T06:38:39.968Z,10.02
2022-11-26T06:40:42.007Z,8.75
2022-11-26T06:42:52.267Z,9.73
2022-11-26T06:44:59.488Z,8.60
2022-11-26T06:47:02.184Z,8.63
2022-11-26T06:49:05.851Z,8.85
2022-11-26T06:51:13.390Z,8.90
2022-11-26T06:53:15.498Z,14.23
2022-11-26T06:57:19.619Z,11.00
2022-11-26T06:59:22.205Z,8.23
2022-11-26T07:01:26.818Z,9.88
2022-11-26T07:03:33.223Z,10.75
2022-11-26T07:05:36.235Z,8.73
2022-11-26T07:07:39.999Z,10.52
2022-11-26T07:09:42.346Z,10.73
2022-11-26T07:11:44.531Z,9.73
2022-11-26T07:15:49.010Z,10.15
2022-11-26T07:17:51.249Z,12.30
2022-11-26T07:21:55.660Z,10.40
2022-11-26T07:23:58.781Z,10.27
2022-11-26T07:26:02.275Z,9.50
2022-11-26T07:28:04.713Z,10.60
2022-11-26T07:32:09.903Z,9.35
2022-11-26T07:34:14.868Z,11.32
2022-11-26T07:36:20.542Z,14.75
2022-11-26T07:38:22.523Z,16.02
2022-11-26T07:40:26.249Z,12.13
2022-11-26T07:42:31.765Z,17.98
2022-11-26T07:44:33.905Z,11.73
2022-11-26T07:46:36.440Z,11.52
2022-11-26T07:48:40.381Z,10.80
2022-11-26T07:51:26.124Z,9.38
2022-11-26T07:53:32.595Z,12.27
2022-11-26T07:55:34.765Z,11.50
2022-11-26T07:59:38.973Z,9.30
2022-11-26T08:01:41.203Z,14.38
2022-11-26T08:03:46.963Z,15.77
2022-11-26T08:06:12.225Z,10.95
2022-11-26T08:08:15.559Z,13.40
2022-11-26T08:10:18.179Z,11.95
2022-11-26T08:12:20.390Z,13.00
2022-11-26T08:16:27.707Z,9.73
2022-11-26T08:18:31.556Z,13.95
2022-11-26T08:20:45.845Z,13.18
2022-11-26T08:22:48.869Z,10.88
2022-11-26T08:26:54.254Z,12.27
2022-11-26T08:28:56.797Z,14.95
2022-11-26T08:31:08.071Z,12.63
2022-11-26T08:33:10.293Z,12.38
2022-11-26T08:37:14.820Z,12.93
2022-11-26T08:39:19.039Z,11.88
2022-11-26T08:41:21.332Z,13.35
2022-11-26T08:43:34.676Z,15.38
2022-11-26T08:45:52.747Z,12.90
2022-11-26T08:47:55.429Z,14.70
2022-11-26T08:49:57.739Z,12.30
2022-11-26T08:54:02.834Z,13.27
2022-11-26T08:56:10.265Z,10.27
2022-11-26T08:58:12.438Z,12.25
2022-11-26T09:00:15.077Z,9.70
2022-11-26T09:02:18.973Z,13.88
2022-11-26T09:04:21.323Z,9.88
2022-11-26T09:06:25.715Z,15.85
2022-11-26T09:08:28.415Z,12.10
2022-11-26T09:12:32.634Z,11.83
2022-11-26T09:14:40.550Z,12.20
2022-11-26T09:16:43.276Z,12.07
2022-11-26T09:18:45.561Z,13.65
2022-11-26T09:22:49.654Z,16.55
2022-11-26T09:24:52.220Z,13.15
2022-11-26T09:26:54.470Z,14.43
2022-11-26T09:30:59.942Z,19.00
2022-11-26T09:33:02.116Z,20.05
2022-11-26T09:35:04.554Z,19.00
2022-11-26T09:37:07.514Z,17.67
2022-11-26T09:39:13.390Z,20.08
2022-11-26T09:41:39.979Z,16.20
2022-11-26T09:44:00.440Z,16.77
2022-11-26T09:46:03.871Z,19.15
2022-11-26T09:48:14.789Z,19.58
2022-11-26T09:50:21.154Z,19.85
2022-11-26T09:52:28.802Z,21.40
2022-11-26T09:54:32.059Z,19.90
2022-11-26T09:56:34.442Z,17.85
2022-11-26T09:58:49.771Z,17.88
2022-11-26T10:00:54.756Z,17.63
2022-11-26T10:02:58.004Z,18.17
2022-11-26T10:05:00.631Z,23.70
2022-11-26T10:07:33.742Z,15.27
2022-11-26T10:09:35.840Z,17.58
2022-11-26T10:11:44.523Z,21.17
2022-11-26T10:13:46.585Z,20.10
2022-11-26T10:16:12.238Z,18.60
2022-11-26T10:18:36.034Z,20.42
2022-11-26T10:21:05.263Z,19.58
2022-11-26T10:23:13.495Z,22.23
2022-11-26T10:25:19.694Z,17.05
2022-11-26T10:27:27.186Z,25.98
2022-11-26T10:29:39.635Z,20.85
2022-11-26T10:31:44.864Z,16.88
2022-11-26T10:34:02.364Z,14.68
2022-11-26T10:36:09.325Z,14.85
2022-11-26T10:38:11.452Z,19.02
2022-11-26T10:40:32.748Z,25.70
2022-11-26T10:42:48.630Z,22.00
2022-11-26T10:44:52.888Z,20.73
2022-11-26T10:46:55.361Z,24.80
2022-11-26T10:49:23.100Z,26.70
2022-11-26T10:51:33.301Z,23.08
2022-11-26T10:54:02.848Z,26.42
2022-11-26T10:56:07.759Z,20.15
2022-11-26T10:58:24.187Z,23.35
2022-11-26T11:00:32.740Z,29.33
2022-11-26T11:02:41.400Z,22.85
2022-11-26T11:04:51.068Z,29.20
2022-11-26T11:06:53.693Z,30.35
2022-11-26T11:08:57.163Z,31.02
2022-11-26T11:11:22.666Z,26.25
2022-11-26T11:13:43.279Z,28.85
2022-11-26T11:15:45.674Z,28.83
2022-11-26T11:18:05.835Z,30.33
2022-11-26T11:20:20.835Z,27.88
2022-11-26T11:22:23.742Z,23.67
2022-11-26T11:24:29.476Z,22.48
2022-11-26T11:26:43.916Z,26.42
2022-11-26T11:28:51.160Z,29.08
2022-11-26T11:31:04.677Z,45.55
2022-11-26T11:33:27.473Z,29.10
2022-11-26T11:35:32.210Z,28.38
2022-11-26T11:37:46.911Z,24.58
2022-11-26T11:40:17.043Z,27.15
2022-11-26T11:42:19.403Z,30.73
2022-11-26T11:44:40.120Z,36.70
2022-11-26T11:47:03.515Z,43.72
2022-11-26T11:49:32.310Z,36.58
2022-11-26T11:51:46.754Z,35.30
2022-11-26T11:54:16.139Z,36.95
2022-11-26T11:56:27.112Z,33.83
2022-11-26T11:59:01.627Z,42.22
2022-11-26T12:01:13.649Z,40.75
2022-11-26T12:03:45.569Z,38.60
2022-11-26T12:05:56.515Z,39.45
2022-11-26T12:08:37.105Z,44.03
2022-11-26T12:10:59.961Z,48.88
2022-11-26T12:13:03.208Z,48.00
2022-11-26T12:15:20.230Z,37.35
2022-11-26T12:17:40.486Z,45.35
2022-11-26T12:19:53.729Z,47.40
2022-11-26T12:22:08.690Z,37.83
2022-11-26T12:24:13.518Z,41.63
2022-11-26T12:26:34.179Z,39.88
2022-11-26T12:29:16.640Z,39.25
2022-11-26T12:31:32.183Z,46.03
2022-11-26T12:33:36.117Z,34.90
2022-11-26T12:35:48.458Z,39.38
2022-11-26T12:37:53.906Z,34.03
2022-11-26T12:40:05.369Z,35.88
2022-11-26T12:42:17.982Z,32.25
2022-11-26T12:46:44.921Z,35.55
2022-11-26T12:48:49.770Z,35.40
2022-11-26T12:50:59.498Z,37.13
2022-11-26T12:53:01.578Z,37.78
2022-11-26T12:55:09.642Z,36.92
2022-11-26T12:57:30.029Z,36.92
2022-11-26T12:59:56.786Z,40.10
2022-11-26T13:01:59.097Z,36.40
2022-11-26T13:06:42.868Z,41.72
2022-11-26T13:09:12.249Z,44.05
2022-11-26T13:11:30.870Z,45.05
2022-11-26T13:13:42.291Z,43.00
2022-11-26T13:16:10.403Z,40.63
2022-11-26T13:18:21.989Z,46.28
2022-11-26T13:20:58.001Z,44.33
2022-11-26T13:23:18.518Z,44.63
2022-11-26T13:25:33.156Z,50.33
2022-11-26T13:28:12.002Z,46.13
2022-11-26T13:30:32.453Z,47.17
2022-11-26T13:33:13.644Z,42.38
2022-11-26T13:35:27.981Z,52.55
2022-11-26T13:37:57.501Z,44.13
2022-11-26T13:40:37.493Z,38.47
2022-11-26T13:42:56.453Z,34.67
2022-11-26T13:45:07.738Z,37.55
2022-11-26T13:47:30.062Z,38.85
2022-11-26T13:50:10.642Z,36.90
2022-11-26T13:52:19.510Z,35.97
2022-11-26T13:54:27.755Z,39.03
2022-11-26T13:56:32.421Z,34.60
2022-11-26T13:58:47.796Z,43.08
2022-11-26T14:00:50.270Z,38.55
2022-11-26T14:02:52.797Z,37.03
2022-11-26T14:04:54.935Z,49.55
2022-11-26T14:07:06.068Z,36.28
2022-11-26T14:09:40.194Z,39.22
2022-11-26T14:11:45.198Z,45.13
2022-11-26T14:14:25.114Z,35.80
2022-11-26T14:17:02.196Z,41.55
2022-11-26T14:19:04.310Z,45.30
2022-11-26T14:21:06.255Z,39.65
2022-11-26T14:23:45.801Z,46.38
2022-11-26T14:25:47.927Z,40.00
2022-11-26T14:27:55.386Z,43.17
2022-11-26T14:30:08.740Z,41.80
2022-11-26T14:32:18.363Z,41.42
2022-11-26T14:34:29.107Z,42.88
2022-11-26T14:36:31.531Z,35.78
2022-11-26T14:38:35.541Z,43.95
2022-11-26T14:40:38.822Z,45.10
2022-11-26T14:43:19.606Z,42.60
2022-11-26T14:45:24.876Z,43.47
2022-11-26T14:47:31.822Z,43.25
2022-11-26T14:49:47.623Z,41.00
2022-11-26T14:51:53.753Z,42.63
2022-11-26T14:53:59.082Z,40.08
2022-11-26T14:56:06.302Z,36.00
2022-11-26T14:58:18.248Z,42.25
2022-11-26T15:00:30.617Z,41.92
2022-11-26T15:02:32.939Z,41.63
2022-11-26T15:04:41.923Z,42.85
2022-11-26T15:06:44.275Z,46.80
2022-11-26T15:08:49.607Z,41.65
2022-11-26T15:10:59.952Z,45.88
2022-11-26T15:13:15.398Z,46.80
2022-11-26T15:15:23.836Z,46.65
2022-11-26T15:17:33.671Z,45.47
2022-11-26T15:19:38.514Z,42.53
2022-11-26T15:21:41.397Z,43.78
2022-11-26T15:23:45.753Z,44.42
2022-11-26T15:25:56.551Z,42.38
2022-11-26T15:28:06.003Z,46.17
2022-11-26T15:30:32.435Z,51.67
2022-11-26T15:32:34.757Z,43.80
2022-11-26T15:36:41.020Z,41.20
2022-11-26T15:39:09.233Z,48.60
2022-11-26T15:41:20.985Z,39.55
2022-11-26T15:43:39.904Z,37.25
2022-11-26T15:45:42.232Z,37.92
2022-11-26T15:47:50.887Z,40.25
2022-11-26T15:49:57.565Z,33.65
2022-11-26T15:52:08.425Z,39.80
2022-11-26T15:54:30.851Z,34.90
2022-11-26T15:56:40.854Z,34.33
2022-11-26T15:58:43.515Z,34.20
2022-11-26T16:00:53.273Z,42.25
2022-11-26T16:02:55.620Z,43.72
2022-11-26T16:04:59.884Z,44.63
2022-11-26T16:07:25.286Z,48.92
2022-11-26T16:09:32.864Z,36.90
2022-11-26T16:11:37.166Z,35.30
2022-11-26T16:13:40.734Z,51.22
2022-11-26T16:15:51.707Z,45.17
2022-11-26T16:17:54.246Z,39.70
2022-11-26T16:19:59.381Z,42.72
2022-11-26T16:22:04.673Z,49.45
2022-11-26T16:24:24.179Z,35.45
2022-11-26T16:26:27.067Z,44.97
2022-11-26T16:28:29.342Z,45.65
2022-11-26T16:32:33.486Z,36.07
2022-11-26T16:34:39.275Z,36.88
2022-11-26T16:36:44.568Z,37.05
2022-11-26T16:38:47.567Z,40.20
2022-11-26T16:40:50.735Z,39.28
2022-11-26T16:42:53.025Z,40.42
2022-11-26T16:46:57.169Z,42.80
2022-11-26T16:51:01.934Z,42.33
2022-11-26T16:55:06.883Z,47.60
2022-11-26T16:57:22.076Z,50.45
2022-11-26T16:59:27.427Z,50.10
2022-11-26T17:01:29.864Z,42.97
2022-11-26T17:05:41.351Z,41.90
2022-11-26T17:07:47.188Z,40.90
2022-11-26T17:09:49.859Z,47.38
2022-11-26T17:11:52.258Z,47.80
2022-11-26T17:15:57.335Z,42.22
2022-11-26T17:18:05.679Z,42.15
2022-11-26T17:20:22.802Z,40.67
2022-11-26T17:22:25.553Z,43.65
2022-11-26T17:24:31.376Z,37.75
2022-11-26T17:26:37.548Z,40.70
2022-11-26T17:30:45.118Z,39.92
2022-11-26T17:32:47.598Z,42.95
2022-11-26T17:34:50.057Z,34.97
2022-11-26T17:36:57.480Z,38.67
2022-11-26T17:39:00.047Z,40.67
2022-11-26T17:41:02.297Z,38.60
2022-11-26T17:45:07.551Z,38.95
2022-11-26T17:47:25.581Z,41.95
2022-11-26T17:49:28.877Z,39.22
2022-11-26T17:51:31.295Z,46.83
2022-11-26T17:53:33.860Z,35.90
2022-11-26T17:55:36.846Z,39.40
2022-11-26T17:57:39.331Z,43.03
2022-11-26T17:59:42.463Z,52.17
2022-11-26T18:01:44.852Z,49.65
2022-11-26T18:05:50.546Z,42.60
2022-11-26T18:07:53.284Z,47.05
2022-11-26T18:09:58.127Z,44.00
2022-11-26T18:12:01.275Z,53.42
2022-11-26T18:14:03.743Z,47.47
2022-11-26T18:16:06.545Z,46.78
2022-11-26T18:18:08.741Z,43.92
2022-11-26T18:22:17.405Z,45.33
2022-11-26T18:24:19.731Z,45.22
2022-11-26T18:26:31.011Z,48.33
2022-11-26T18:28:33.958Z,53.08
2022-11-26T18:30:36.727Z,53.85
2022-11-26T18:32:39.570Z,53.13
2022-11-26T18:34:41.664Z,50.40
2022-11-26T18:36:43.756Z,59.00
2022-11-26T18:38:46.209Z,55.33
2022-11-26T18:40:59.133Z,62.88
2022-11-26T18:43:01.440Z,60.67
2022-11-26T18:47:09.295Z,62.42
2022-11-26T18:49:11.697Z,60.65
2022-11-26T18:51:14.557Z,56.40
2022-11-26T18:53:17.010Z,56.72
2022-11-26T18:55:19.202Z,54.42
2022-11-26T18:57:21.368Z,57.97
2022-11-26T18:59:23.487Z,49.40
2022-11-26T19:01:29.616Z,49.28
2022-11-26T19:03:33.643Z,55.65
2022-11-26T19:05:37.774Z,48.05
2022-11-26T19:07:40.550Z,47.30
2022-11-26T19:10:02.738Z,49.70
2022-11-26T19:12:05.317Z,46.17
2022-11-26T19:14:08.091Z,50.83
2022-11-26T19:16:30.639Z,34.50
2022-11-26T19:18:32.788Z,52.33
2022-11-26T19:20:35.579Z,43.17
2022-11-26T19:22:47.145Z,46.28
2022-11-26T19:24:49.289Z,41.00
2022-11-26T19:26:51.550Z,54.03
2022-11-26T19:29:01.655Z,44.72
2022-11-26T19:31:14.447Z,52.42
2022-11-26T19:33:34.332Z,51.63
2022-11-26T19:35:40.625Z,44.53
2022-11-26T19:37:43.125Z,42.55
2022-11-26T19:39:45.317Z,44.03
2022-11-26T19:41:48.040Z,44.55
2022-11-26T19:43:50.569Z,44.88
2022-11-26T19:46:07.884Z,44.95
2022-11-26T19:48:10.146Z,50.28
2022-11-26T19:50:12.168Z,50.08
2022-11-26T19:52:14.443Z,46.45
2022-11-26T19:56:29.971Z,48.88
2022-11-26T19:58:34.036Z,46.00
2022-11-26T20:00:36.619Z,51.63
2022-11-26T20:02:39.286Z,49.85
2022-11-26T20:04:42.011Z,55.47
2022-11-26T20:07:04.005Z,51.88
2022-11-26T20:09:08.309Z,50.28
2022-11-26T20:11:11.328Z,45.92
2022-11-26T20:13:13.610Z,54.05
2022-11-26T20:15:47.586Z,45.72
2022-11-26T20:17:49.783Z,46.90
2022-11-26T20:21:57.406Z,48.25
2022-11-26T20:24:04.290Z,49.90
2022-11-26T20:26:16.225Z,53.63
2022-11-26T20:28:18.461Z,41.65
2022-11-26T20:30:22.511Z,47.90
2022-11-26T20:32:30.670Z,43.05
2022-11-26T20:34:34.026Z,49.30
2022-11-26T20:36:37.911Z,48.75
2022-11-26T20:38:40.464Z,50.50
2022-11-26T20:40:43.201Z,51.38
2022-11-26T20:42:46.869Z,50.20
2022-11-26T20:44:52.179Z,47.92
2022-11-26T20:46:57.203Z,45.58
2022-11-26T20:48:59.851Z,46.38
2022-11-26T20:51:07.922Z,47.67
2022-11-26T20:53:10.049Z,48.13
2022-11-26T20:55:12.702Z,53.50
2022-11-26T20:57:18.185Z,51.85
2022-11-26T20:59:20.779Z,51.35
2022-11-26T21:01:26.101Z,44.13
2022-11-26T21:03:29.595Z,50.47
2022-11-26T21:05:33.760Z,46.17
2022-11-26T21:07:36.197Z,53.75
2022-11-26T21:09:49.693Z,53.80
2022-11-26T21:11:51.925Z,43.80
2022-11-26T21:13:54.893Z,44.42
2022-11-26T21:15:57.566Z,41.22
2022-11-26T21:18:00.200Z,37.97
2022-11-26T21:20:05.572Z,42.75
2022-11-26T21:22:08.134Z,40.63
2022-11-26T21:24:11.039Z,42.10
2022-11-26T21:26:19.236Z,42.95
2022-11-26T21:28:21.965Z,46.30
2022-11-26T21:30:24.809Z,46.78
2022-11-26T21:32:27.295Z,46.90
2022-11-26T21:34:29.560Z,39.53
2022-11-26T21:36:33.492Z,39.85
2022-11-26T21:38:36.958Z,37.15
2022-11-26T21:40:39.222Z,33.63
2022-11-26T21:42:41.439Z,41.55
2022-11-26T21:44:43.564Z,34.13
2022-11-26T21:46:46.393Z,36.08
2022-11-26T21:48:49.660Z,34.20
2022-11-26T21:50:51.814Z,36.63
2022-11-26T21:52:56.197Z,37.10
2022-11-26T21:55:03.272Z,37.47
2022-11-26T21:57:11.105Z,40.70
2022-11-26T21:59:13.742Z,36.22
2022-11-26T22:01:18.346Z,38.78
2022-11-26T22:03:20.669Z,44.42
2022-11-26T22:09:29.331Z,42.17
2022-11-26T22:11:35.820Z,43.83
2022-11-26T22:13:39.918Z,37.30
2022-11-26T22:15:44.500Z,41.85
2022-11-26T22:17:47.152Z,39.78
2022-11-26T22:21:51.220Z,48.37
2022-11-26T22:25:55.830Z,40.78
2022-11-26T22:27:57.844Z,41.10
2022-11-26T22:30:00.031Z,41.90
2022-11-26T22:32:02.064Z,39.97
2022-11-26T22:34:08.022Z,41.05
2022-11-26T22:36:10.333Z,43.22
2022-11-26T22:38:12.983Z,48.60
2022-11-26T22:40:15.124Z,38.55
2022-11-26T22:42:17.163Z,40.33
2022-11-26T22:44:19.405Z,44.83
2022-11-26T22:48:25.330Z,44.97
2022-11-26T22:50:27.351Z,40.17
2022-11-26T22:52:29.484Z,36.15
2022-11-26T22:54:32.145Z,41.92
2022-11-26T22:58:36.186Z,38.75
2022-11-26T23:00:52.046Z,39.75
2022-11-26T23:02:54.414Z,48.90
2022-11-26T23:06:58.646Z,39.72
2022-11-26T23:09:03.433Z,48.92
2022-11-26T23:11:07.645Z,42.83
2022-11-26T23:13:11.920Z,48.58
2022-11-26T23:15:14.078Z,47.10
2022-11-26T23:17:16.600Z,42.58
2022-11-26T23:19:18.694Z,45.50
2022-11-26T23:21:32.456Z,45.63
2022-11-26T23:23:37.495Z,42.88
2022-11-26T23:25:41.069Z,41.95
2022-11-26T23:27:43.187Z,44.42
2022-11-26T23:29:45.254Z,46.35
2022-11-26T23:31:47.338Z,43.72
2022-11-26T23:33:50.256Z,40.33
2022-11-26T23:35:52.372Z,43.88
2022-11-26T23:37:54.417Z,45.92
2022-11-26T23:39:56.454Z,41.50
2022-11-26T23:41:58.627Z,38.92
2022-11-26T23:44:00.704Z,39.00
2022-11-26T23:46:28.945Z,42.80
2022-11-26T23:48:31.546Z,41.45
2022-11-26T23:50:33.723Z,42.45
2022-11-26T23:52:36.315Z,40.63
2022-11-26T23:54:38.442Z,42.10
2022-11-26T23:56:44.523Z,42.08
2022-11-26T23:58:51.611Z,43.70
